Impacts METAR Board
IDs:

KRSW - Ft Myers/SW Florida, FL, US

Updated at: 2300 UTC 30 Jun 2022
Potential Impact None Slight Moderate High
Time 30/11Z 30/12Z 30/13Z 30/14Z 30/15Z 30/16Z 30/17Z 30/18Z 30/19Z 30/20Z 30/21Z 30/22Z 30/23Z
Temp77 79 82 86 87 88 90 93 92 91 89 76 78
Dewpt75 75 75 76 75 74 74 74 72 76 76 73 74
Altim30.10 30.11 30.13 30.13 30.13 30.13 30.11 30.09 30.07 30.04 30.05 30.08 30.09
VIS10 10 10 10 10 10 10 10 10 10 10 3 10
CIG-- -- -- -- 30 50 -- -- -- 50 -- 34 --
CoverCLRCLRCLRCLRBKNOVCFEWFEWFEWOVCCLROVCFEW
FltCatVFRVFRVFRVFRMVFRVFRVFRVFRVFRVFRVFRMVFRVFR
WX--------------------TSVCTS +RA BR--
WDir80701600001302200200250350100
WSpd4 4 3 0 0 0 3 4 3 7 12 6 5
WGst-- -- -- -- -- -- -- -- -- -- 21 -- --
Raw hourly METARs
KRSW 301053Z 08004KT 10SM CLR 25/24 A3010 RMK AO2 SLP191 T02500239
KRSW 301153Z 07004KT 10SM CLR 26/24 A3011 RMK AO2 SLP194 T02610239 10267 20244 53003
KRSW 301253Z 16003KT 10SM CLR 28/24 A3013 RMK AO2 SLP199 T02780239
KRSW 301353Z 00000KT 10SM CLR 30/24 A3013 RMK AO2 SLP200 T03000244
KRSW 301453Z 00000KT 10SM BKN030 31/24 A3013 RMK AO2 SLP200 T03060239 51007
KRSW 301553Z 00000KT 10SM SCT036 BKN050 OVC060 31/23 A3013 RMK AO2 SLP198 T03110233
KRSW 301653Z 13003KT 10SM FEW065 32/23 A3011 RMK AO2 SLP193 T03220233
KRSW 301753Z COR 22004KT 10SM FEW060 34/23 A3009 RMK AO2 SLP187 T03390233 10344 20261 58014
KRSW 301853Z VRB03KT 10SM FEW050 33/22 A3007 RMK AO2 SLP179 T03330222
KRSW 301953Z 20007KT 10SM OVC050 33/24 A3004 RMK AO2 LTG DSNT SE AND S SLP170 T03280244
KRSW 302053Z 25012G21KT 10SM TS CLR 32/24 A3005 RMK AO2 LTG DSNT E AND SE AND W TSB23 SLP172 T03170244 55015
KRSW 302153Z 35006KT 3SM VCTS +RA BR BKN034 BKN090 OVC110 24/23 A3008 RMK AO2 PK WND 15039/2128 WSHFT 2054 LTG DSNT ALQDS RAB21 TSE44 SLP185 P0079 T02440228
KRSW 302253Z 10005KT 10SM FEW120 26/23 A3009 RMK AO2 LTG DSNT N AND NW RAE14 SLP187 P0001 T02560233



Page loaded:  23:20 UTC  |   04:20 PM Pacific  |   05:20 PM Mountain  |   06:20 PM Central  |   07:20 PM Eastern

 

ADVISORIES

FORECASTS

FORECASTS

OBSERVATIONS

USER TOOLS

ABOUT US